createdAt,value
2022-10-12T00:01:41.075Z,3.90
2022-10-12T00:04:08.331Z,3.42
2022-10-12T00:06:35.431Z,4.32
2022-10-12T00:09:02.513Z,3.85
2022-10-12T00:11:30.711Z,3.70
2022-10-12T00:13:58.952Z,3.70
2022-10-12T00:16:26.644Z,4.20
2022-10-12T00:18:54.672Z,3.20
2022-10-12T00:21:22.290Z,4.22
2022-10-12T00:23:49.579Z,3.63
2022-10-12T00:26:17.784Z,3.28
2022-10-12T00:28:45.035Z,4.05
2022-10-12T00:31:14.235Z,4.72
2022-10-12T00:33:41.864Z,4.10
2022-10-12T00:36:13.732Z,3.92
2022-10-12T00:44:40.240Z,4.40
2022-10-12T00:47:46.347Z,3.70
2022-10-12T00:50:33.971Z,4.30
2022-10-12T00:53:08.814Z,3.63
2022-10-12T00:55:41.183Z,4.15
2022-10-12T00:58:13.870Z,4.50
2022-10-12T01:03:16.044Z,4.38
2022-10-12T01:05:43.369Z,4.57
2022-10-12T01:08:10.547Z,4.28
2022-10-12T01:10:37.991Z,4.35
2022-10-12T01:13:10.712Z,3.95
2022-10-12T01:15:56.945Z,3.78
2022-10-12T01:18:45.423Z,3.40
2022-10-12T01:21:27.139Z,4.07
2022-10-12T01:24:25.254Z,3.08
2022-10-12T01:27:22.245Z,3.40
2022-10-12T01:29:56.771Z,3.55
2022-10-12T01:32:35.519Z,3.33
2022-10-12T01:35:14.097Z,3.35
2022-10-12T01:38:00.159Z,3.05
2022-10-12T01:40:59.306Z,3.33
2022-10-12T01:43:34.283Z,3.65
2022-10-12T01:46:16.774Z,3.88
2022-10-12T01:48:51.159Z,3.90
2022-10-12T01:51:20.962Z,3.95
2022-10-12T01:54:08.749Z,4.13
2022-10-12T01:56:41.515Z,3.17
2022-10-12T01:59:18.826Z,3.30
2022-10-12T02:02:08.720Z,3.72
2022-10-12T02:04:43.550Z,3.72
2022-10-12T02:07:17.672Z,3.60
2022-10-12T02:09:45.750Z,3.75
2022-10-12T02:12:23.094Z,3.33
2022-10-12T02:15:03.015Z,3.33
2022-10-12T02:17:31.062Z,4.38
2022-10-12T02:20:00.023Z,3.92
2022-10-12T02:22:47.586Z,3.38
2022-10-12T02:25:20.042Z,3.10
2022-10-12T02:27:55.329Z,3.35
2022-10-12T02:30:24.023Z,3.00
2022-10-12T02:33:08.957Z,3.20
2022-10-12T02:36:16.657Z,3.97
2022-10-12T02:38:58.701Z,3.58
2022-10-12T02:41:41.769Z,4.32
2022-10-12T02:44:11.060Z,3.65
2022-10-12T02:46:39.640Z,3.88
2022-10-12T02:49:07.269Z,3.80
2022-10-12T02:51:34.965Z,3.88
2022-10-12T02:54:03.128Z,4.38
2022-10-12T02:56:30.452Z,3.85
2022-10-12T02:58:58.305Z,3.00
2022-10-12T03:01:25.704Z,3.88
2022-10-12T03:03:52.911Z,3.72
2022-10-12T03:06:20.332Z,3.88
2022-10-12T03:08:48.296Z,3.42
2022-10-12T03:11:16.226Z,4.13
2022-10-12T03:13:46.770Z,3.70
2022-10-12T03:16:14.004Z,4.00
2022-10-12T03:18:46.074Z,3.75
2022-10-12T03:21:31.006Z,4.15
2022-10-12T03:24:00.335Z,4.32
2022-10-12T03:26:30.264Z,4.32
2022-10-12T03:29:03.268Z,3.67
2022-10-12T03:31:32.671Z,4.63
2022-10-12T03:34:12.159Z,4.78
2022-10-12T03:36:45.763Z,4.43
2022-10-12T03:39:19.434Z,4.47
2022-10-12T03:41:49.399Z,4.45
2022-10-12T03:44:25.255Z,4.05
2022-10-12T03:46:57.896Z,4.75
2022-10-12T03:52:27.516Z,4.35
2022-10-12T03:54:58.574Z,4.05
2022-10-12T03:57:30.919Z,4.25
2022-10-12T04:00:04.925Z,4.57
2022-10-12T04:02:48.268Z,4.43
2022-10-12T04:05:18.731Z,6.22
2022-10-12T04:10:23.242Z,4.18
2022-10-12T04:12:50.815Z,4.93
2022-10-12T04:15:18.284Z,5.25
2022-10-12T04:17:45.811Z,5.07
2022-10-12T04:20:13.231Z,4.82
2022-10-12T04:22:42.022Z,4.93
2022-10-12T04:25:11.697Z,5.05
2022-10-12T04:27:39.972Z,5.35
2022-10-12T04:30:08.334Z,5.55
2022-10-12T04:32:36.247Z,4.20
2022-10-12T04:35:06.462Z,4.85
2022-10-12T04:37:34.067Z,5.00
2022-10-12T04:40:09.567Z,4.55
2022-10-12T04:46:07.463Z,4.70
2022-10-12T04:48:34.653Z,4.43
2022-10-12T04:51:01.833Z,4.70
2022-10-12T04:53:58.329Z,4.72
2022-10-12T04:56:36.535Z,4.60
2022-10-12T04:59:29.750Z,4.22
2022-10-12T05:02:04.052Z,4.07
2022-10-12T05:04:32.204Z,4.13
2022-10-12T05:07:05.199Z,5.88
2022-10-12T05:09:51.272Z,4.50
2022-10-12T05:12:23.611Z,4.20
2022-10-12T05:14:52.564Z,4.53
2022-10-12T05:17:34.506Z,4.00
2022-10-12T05:20:21.968Z,4.43
2022-10-12T05:23:02.320Z,4.18
2022-10-12T05:25:35.256Z,4.20
2022-10-12T05:28:13.465Z,4.22
2022-10-12T05:30:48.500Z,4.68
2022-10-12T05:33:30.965Z,3.60
2022-10-12T05:36:11.704Z,4.05
2022-10-12T05:38:46.329Z,4.60
2022-10-12T05:41:23.100Z,5.03
2022-10-12T05:43:56.840Z,4.50
2022-10-12T05:46:27.163Z,4.15
2022-10-12T05:48:55.860Z,3.72
2022-10-12T05:51:27.928Z,4.20
2022-10-12T05:53:55.928Z,4.07
2022-10-12T05:56:26.142Z,3.97
2022-10-12T05:58:55.908Z,4.72
2022-10-12T06:01:33.923Z,4.03
2022-10-12T06:04:08.955Z,6.63
2022-10-12T06:06:53.053Z,6.28
2022-10-12T06:15:29.602Z,6.30
2022-10-12T06:18:02.422Z,6.57
2022-10-12T06:20:50.290Z,5.25
2022-10-12T06:23:24.873Z,5.47
2022-10-12T06:26:24.494Z,3.83
2022-10-12T06:29:14.682Z,5.10
2022-10-12T06:34:43.878Z,4.47
2022-10-12T06:37:44.307Z,3.95
2022-10-12T06:49:17.998Z,4.90
2022-10-12T06:51:51.140Z,4.05
2022-10-12T06:54:22.301Z,4.00
2022-10-12T06:57:09.557Z,3.53
2022-10-12T06:59:42.359Z,5.03
2022-10-12T07:02:32.211Z,4.90
2022-10-12T07:05:18.955Z,3.85
2022-10-12T07:11:00.226Z,5.47
2022-10-12T07:19:13.591Z,5.25
2022-10-12T07:21:40.805Z,4.47
2022-10-12T07:24:08.301Z,4.30
2022-10-12T07:26:41.996Z,4.63
2022-10-12T07:29:28.113Z,3.90
2022-10-12T07:32:02.426Z,3.75
2022-10-12T07:34:52.134Z,4.80
2022-10-12T07:37:47.997Z,4.82
2022-10-12T07:40:25.268Z,4.82
2022-10-12T07:43:15.181Z,4.30
2022-10-12T07:45:58.481Z,3.58
2022-10-12T07:51:16.343Z,4.28
2022-10-12T07:53:53.602Z,3.75
2022-10-12T07:56:29.570Z,3.70
2022-10-12T07:59:12.536Z,4.57
2022-10-12T08:04:37.680Z,4.53
2022-10-12T08:07:23.706Z,4.60
2022-10-12T08:10:06.752Z,4.15
2022-10-12T08:12:52.092Z,4.15
2022-10-12T08:15:59.293Z,6.32
2022-10-12T08:18:41.040Z,5.90
2022-10-12T08:21:40.639Z,4.03
2022-10-12T08:24:41.188Z,4.60
2022-10-12T08:27:34.244Z,4.97
2022-10-12T08:32:50.661Z,4.72
2022-10-12T08:35:52.041Z,4.55
2022-10-12T08:38:27.055Z,4.70
2022-10-12T08:40:54.197Z,4.53
2022-10-12T08:43:38.359Z,5.15
2022-10-12T08:46:05.607Z,5.22
2022-10-12T08:48:32.678Z,4.28
2022-10-12T08:51:00.834Z,4.95
2022-10-12T08:53:37.071Z,4.70
2022-10-12T08:56:04.243Z,4.47
2022-10-12T08:58:31.383Z,4.93
2022-10-12T09:01:02.851Z,3.90
2022-10-12T09:03:33.148Z,5.18
2022-10-12T09:06:12.722Z,4.78
2022-10-12T09:08:59.317Z,4.03
2022-10-12T09:11:26.438Z,4.93
2022-10-12T09:14:02.538Z,4.47
2022-10-12T09:16:31.468Z,4.15
2022-10-12T09:19:04.232Z,4.57
2022-10-12T09:21:32.325Z,4.82
2022-10-12T09:23:59.805Z,4.13
2022-10-12T09:26:33.942Z,4.13
2022-10-12T09:29:02.145Z,3.70
2022-10-12T09:31:32.053Z,4.35
2022-10-12T09:34:00.130Z,4.35
2022-10-12T09:36:29.062Z,4.70
2022-10-12T09:38:57.694Z,4.18
2022-10-12T09:41:26.057Z,4.80
2022-10-12T09:43:55.937Z,5.07
2022-10-12T09:46:41.412Z,6.53
2022-10-12T09:49:08.590Z,6.43
2022-10-12T09:51:35.900Z,5.88
2022-10-12T09:54:04.239Z,5.30
2022-10-12T09:56:34.474Z,5.55
2022-10-12T09:59:02.444Z,5.40
2022-10-12T10:01:30.735Z,5.78
2022-10-12T10:04:08.669Z,5.43
2022-10-12T10:06:36.942Z,5.43
2022-10-12T10:09:04.566Z,5.72
2022-10-12T10:11:32.044Z,5.55
2022-10-12T10:14:00.224Z,6.03
2022-10-12T10:16:28.572Z,5.82
2022-10-12T10:19:00.342Z,6.57
2022-10-12T10:21:29.864Z,6.63
2022-10-12T10:23:56.967Z,6.20
2022-10-12T10:26:25.602Z,6.25
2022-10-12T10:28:56.963Z,6.65
2022-10-12T10:31:27.625Z,6.68
2022-10-12T10:34:13.569Z,7.70
2022-10-12T10:36:48.636Z,6.97
2022-10-12T10:39:27.928Z,7.63
2022-10-12T10:41:56.126Z,7.68
2022-10-12T10:44:29.154Z,9.95
2022-10-12T10:46:57.593Z,9.50
2022-10-12T10:49:30.881Z,8.65
2022-10-12T10:51:59.528Z,8.88
2022-10-12T10:54:28.340Z,8.27
2022-10-12T10:57:02.329Z,9.43
2022-10-12T10:59:49.773Z,9.75
2022-10-12T11:02:20.440Z,8.52
2022-10-12T11:04:50.412Z,9.15
2022-10-12T11:07:22.227Z,9.40
2022-10-12T11:09:52.528Z,8.77
2022-10-12T11:12:22.041Z,9.07
2022-10-12T11:14:51.434Z,9.40
2022-10-12T11:17:30.654Z,9.70
2022-10-12T11:20:06.680Z,9.40
2022-10-12T11:22:40.238Z,8.98
2022-10-12T11:25:29.541Z,9.75
2022-10-12T11:27:56.857Z,9.95
2022-10-12T11:30:25.687Z,10.60
2022-10-12T11:32:55.545Z,9.35
2022-10-12T11:35:29.907Z,10.20
2022-10-12T11:38:02.150Z,10.65
2022-10-12T11:41:00.252Z,10.98
2022-10-12T11:43:19.175Z,12.07
2022-10-12T11:45:49.397Z,12.55
2022-10-12T11:48:42.981Z,12.13
2022-10-12T11:51:11.864Z,11.27
2022-10-12T11:53:39.006Z,11.15
2022-10-12T11:56:24.397Z,11.43
2022-10-12T11:59:00.928Z,13.02
2022-10-12T12:01:34.500Z,12.45
2022-10-12T12:04:29.148Z,11.73
2022-10-12T12:06:59.166Z,12.38
2022-10-12T12:09:35.010Z,12.50
2022-10-12T12:12:09.404Z,12.07
2022-10-12T12:14:47.855Z,12.00
2022-10-12T12:17:30.807Z,12.65
2022-10-12T12:19:59.956Z,13.02
2022-10-12T12:22:30.166Z,12.85
2022-10-12T12:24:57.270Z,13.23
2022-10-12T12:27:29.833Z,12.55
2022-10-12T12:29:58.034Z,13.32
2022-10-12T12:32:26.958Z,13.02
2022-10-12T12:35:00.235Z,12.30
2022-10-12T12:37:32.444Z,13.18
2022-10-12T12:40:00.169Z,11.32
2022-10-12T12:42:32.199Z,13.35
2022-10-12T12:45:19.342Z,13.15
2022-10-12T12:47:46.908Z,12.13
2022-10-12T12:50:32.733Z,11.85
2022-10-12T12:53:07.958Z,11.20
2022-10-12T12:56:00.238Z,10.38
2022-10-12T12:58:42.591Z,10.32
2022-10-12T13:01:21.799Z,11.63
2022-10-12T13:04:07.073Z,11.40
2022-10-12T13:06:37.198Z,10.18
2022-10-12T13:09:07.157Z,9.25
2022-10-12T13:11:51.562Z,9.38
2022-10-12T13:14:27.518Z,10.65
2022-10-12T13:17:30.688Z,9.57
2022-10-12T13:19:42.044Z,9.23
2022-10-12T13:22:26.611Z,11.27
2022-10-12T13:24:55.834Z,12.75
2022-10-12T13:27:23.108Z,10.07
2022-10-12T13:30:09.044Z,10.52
2022-10-12T13:32:48.473Z,9.93
2022-10-12T13:35:18.065Z,8.73
2022-10-12T13:37:45.157Z,9.57
2022-10-12T13:40:28.471Z,8.38
2022-10-12T13:42:55.649Z,8.82
2022-10-12T13:45:22.792Z,10.77
2022-10-12T13:47:49.890Z,9.45
2022-10-12T13:50:20.591Z,9.07
2022-10-12T13:52:54.411Z,9.73
2022-10-12T13:55:29.128Z,9.88
2022-10-12T13:57:56.356Z,9.07
2022-10-12T14:00:27.318Z,9.48
2022-10-12T14:02:58.035Z,8.48
2022-10-12T14:05:26.315Z,10.60
2022-10-12T14:07:54.219Z,8.82
2022-10-12T14:10:27.034Z,10.68
2022-10-12T14:12:54.613Z,10.52
2022-10-12T14:15:22.445Z,10.07
2022-10-12T14:17:54.861Z,11.30
2022-10-12T14:20:30.464Z,9.65
2022-10-12T14:23:01.891Z,10.25
2022-10-12T14:25:30.631Z,8.90
2022-10-12T14:27:59.495Z,9.13
2022-10-12T14:30:31.193Z,10.70
2022-10-12T14:33:10.501Z,9.13
2022-10-12T14:35:42.092Z,11.02
2022-10-12T14:38:28.051Z,10.38
2022-10-12T14:40:55.158Z,11.00
2022-10-12T14:43:24.313Z,10.68
2022-10-12T14:45:52.412Z,10.80
2022-10-12T14:48:23.106Z,11.00
2022-10-12T14:50:51.178Z,8.98
2022-10-12T14:53:18.309Z,11.10
2022-10-12T16:11:36.117Z,12.98
2022-10-12T16:14:40.481Z,12.02
2022-10-12T16:17:18.915Z,11.88
2022-10-12T16:20:23.234Z,12.38
2022-10-12T16:28:46.168Z,14.02
2022-10-12T16:31:15.409Z,13.02
2022-10-12T16:33:42.708Z,12.20
2022-10-12T16:36:11.350Z,12.52
2022-10-12T16:38:38.468Z,14.02
2022-10-12T16:41:09.405Z,13.45
2022-10-12T16:43:36.605Z,12.50
2022-10-12T16:46:04.068Z,13.38
2022-10-12T16:48:31.593Z,19.60
2022-10-12T16:50:58.692Z,16.63
2022-10-12T16:53:25.853Z,15.50
2022-10-12T16:55:53.006Z,14.65
2022-10-12T16:58:20.166Z,14.50
2022-10-12T17:00:47.442Z,15.00
2022-10-12T17:03:14.709Z,14.75
2022-10-12T17:05:42.717Z,18.25
2022-10-12T17:08:15.063Z,16.60
2022-10-12T17:10:43.627Z,18.00
2022-10-12T17:13:10.819Z,21.25
